x

Tanner Bank - 121nm West Of San Diego, Ca (46047) Wave Buoy

3:50pm - Mon 2nd Mar 2015 All times are PST. -8 hours from GMT.

  • Sig Wave height 5.2ft
  • Swell Direction
  • Peak Period 11s
  • Average Period 7s
  • Wind
    4mph
  • Sea Temp 61°f
  • Air Temp 59°f
  • Sea Pressure 1013.1mb
  • Tanner Bank - 121nm West Of San Diego, Ca
  • Tanner Bank - 121nm West Of San Diego, Ca

More Historic Weather Station data

Upgrade to MSW Pro to gain access to the past 30 days of data for over 8000 Wavebouys and Weather Stations around the globe.

Join Pro

Comparision Forecast

View Surf forecast
   
Mon 03/02 3:50pm 5ft 11s 7s 4
mph
1013.1mb 61f 59f
2:50pm 6ft 11s 7s 9 11 mph 1013.1mb 61f 59f
1:50pm 6ft 11s 7s 11 16 mph 1012.9mb 61f 59f
12:50pm 6.5ft 11s 8s 11 13 mph 1013.6mb 62f 58f
11:50am 7ft 11s 8s 13 16 mph 1013.9mb 61f 58f
10:50am 7ft 11s 8s 13 16 mph 1014mb 61f 58f
9:50am  -   -   -  13 18 mph 1014.1mb 61f 57f
8:50am 7ft 12s 8s 13 16 mph 1013.8mb 61f 57f
7:50am 7ft 11s 9s 11 13 mph 1013.2mb 61f 57f
6:50am 6.5ft 12s 9s 11 13 mph 1012.8mb 61f 56f
5:50am 7.5ft 12s 9s 9 11 mph 1012.7mb 61f 57f
4:50am 7ft 12s 9s 4 9 mph 1012.3mb 61f 56f
3:50am 7ft 12s 9s 16 20 mph 1012.4mb 61f 55f
2:50am 8ft 12s 10s 9 11 mph 1012.7mb 61f 57f
1:50am 7.5ft 12s 9s 9 11 mph 1013.3mb 61f 57f
12:50am 7.5ft 12s 9s 9 11 mph 1013.7mb 61f 58f
Sun 03/01 11:50pm 7ft 11s 9s 9 11 mph 1014mb 61f 57f
10:50pm 7ft 11s 9s 9 11 mph 1014.1mb 61f 58f
9:50pm 8ft 11s 9s 9 11 mph 1014mb 62f 58f
8:50pm 8ft 11s 9s 9 11 mph 1013.8mb 62f 58f
7:50pm 7ft 11s 9s 7 9 mph 1013.7mb 62f 58f
6:50pm 8ft 10s 9s 7 9 mph 1013.1mb 62f 58f
5:50pm 7ft 10s 9s 7 9 mph 1012.7mb 62f 58f
4:50pm 6.5ft 11s 9s 7 9 mph 1012.5mb 63f 59f
3:50pm 6ft 9s 8s 7 9 mph 1012.4mb 63f 59f
2:50pm 6ft 10s 8s 4 9 mph 1012.5mb 63f 59f
1:50pm 7ft 9s 8s 4 7 mph 1012.5mb 63f 59f
12:50pm 6ft 10s 8s 4 9 mph 1013mb 63f 59f
11:50am 6ft 10s 8s 2 4 mph 1013.5mb 62f 59f
10:50am 5.5ft 9s 8s 2
mph
1014mb 62f 59f
9:50am 5ft 11s 7s 4 7 mph 1013.6mb 62f 58f
8:50am 6.5ft 10s 8s 4 9 mph 1013.6mb 61f 58f
7:50am 6ft 9s 8s 7 9 mph 1013.1mb 61f 58f
6:50am 6ft 9s 8s 7 11 mph 1012.5mb 61f 58f
5:50am 6ft 8s 8s 7 9 mph 1012.2mb 61f 58f
4:50am 5ft 8s 7s 7 9 mph 1011.9mb 61f 58f
3:50am 5ft 9s 7s 9 11 mph 1011.9mb 61f 58f
2:50am 5.5ft 9s 7s 9 11 mph 1012.3mb 62f 58f
1:50am 5.5ft 8s 7s 7 9 mph 1012.8mb 62f 59f
12:50am 5ft 8s 7s 7 9 mph 1012.7mb 62f 59f
Sat 02/28 11:50pm 6ft 8s 7s 4 7 mph 1012.6mb 62f 59f
10:50pm 5.5ft 8s 7s 7 9 mph 1012.8mb 62f 58f
9:50pm 5.5ft 8s 7s 7 9 mph 1012.6mb 62f 58f
8:50pm 6ft 8s 7s 4 7 mph 1012.2mb 62f 58f
7:50pm 5ft 8s 7s 7 9 mph 1012mb 62f 58f
6:50pm 5ft 8s 7s 7 9 mph 1011.7mb 62f 58f
5:50pm 6ft 8s 6s 4 7 mph 1011.5mb 62f 57f
4:50pm 5.5ft 8s 6s 9 13 mph 1011.5mb 62f 55f
3:50pm 5ft 8s 6s 9 11 mph 1011.4mb 62f 59f
2:50pm 5.5ft 7s 6s 11 13 mph 1011.3mb 62f 59f
1:50pm 5ft 8s 6s 13 18 mph 1011.6mb 62f 59f
12:50pm 5.5ft 8s 6s 11 16 mph 1012.2mb 62f 59f
11:50am 6ft 8s 6s 11 13 mph 1012.8mb 62f 59f
10:50am 6ft 8s 6s 16 18 mph 1013mb 62f 59f
9:50am 6ft 8s 6s 13 16 mph 1012.9mb 62f 58f
8:50am 6.5ft 8s 6s 13 20 mph 1012.6mb 62f 58f
7:50am 7ft 8s 6s 16 18 mph 1011.7mb 62f 59f
6:50am 7ft 8s 6s 16 20 mph 1011mb 62f 59f
5:50am 7.5ft 8s 6s 18 20 mph 1010.5mb 62f 59f
4:50am 7.5ft 9s 6s 20 25 mph 1009.9mb 62f 60f
3:50am 8ft 9s 6s 22 27 mph 1009.5mb 62f 60f
2:50am 8ft 9s 6s 22 27 mph 1009.8mb 62f 60f
1:50am 8ft 9s 6s 22 25 mph 1010.2mb 61f 60f
12:50am 8ft 9s 6s 22 29 mph 1010.2mb 61f 59f
Fri 02/27 11:50pm 9ft 9s 6s 18 22 mph 1010.6mb 61f 60f
10:50pm 9ft 8s 6s 18 22 mph 1010.8mb 61f 60f
9:50pm 10ft 10s 7s 20 27 mph 1010.8mb 61f 60f
8:50pm  -   -   -  20 22 mph 1010.7mb 61f 60f
7:50pm 10ft 10s 7s 20 25 mph 1010.3mb 61f 60f
6:50pm 10.5ft 8s 7s 22 27 mph 1009.9mb 61f 61f
5:50pm 11ft 10s 7s 22 27 mph 1009.7mb 62f 60f
4:50pm 11ft 8s 7s 27 34 mph 1009.5mb 62f 60f
3:50pm 12ft 10s 7s 25 31 mph 1010mb 62f 60f
2:50pm 12ft 9s 7s 27 31 mph 1010.2mb 62f 60f
1:50pm 12ft 10s 7s 27 31 mph 1010.5mb 62f 60f
12:50pm 10.5ft 11s 6s 27 31 mph 1011.2mb 62f 60f
11:50am  -   -   -  29 34 mph 1012mb 62f 60f
10:50am 12ft 11s 7s 27 34 mph 1012.2mb 62f 60f
9:50am 12.5ft 11s 7s 27 34 mph 1012mb 62f 60f
8:50am 13ft 10s 7s 27 31 mph 1011.5mb 62f 60f
7:50am 11ft 10s 7s 27 34 mph 1010.7mb 62f 60f
6:50am  -   -   -  25
mph
1010.6mb 62f 60f
5:50am 10.5ft 10s 7s 22 29 mph 1010.4mb 62f 60f
4:50am 12ft 10s 7s 20 25 mph 1009.7mb 62f 60f
3:50am 11ft 8s 7s 27 31 mph 1009.8mb 62f 60f
2:50am 10ft 11s 7s 20 25 mph 1010.3mb 62f 60f
1:50am 9ft 8s 6s 25 27 mph 1010.4mb 62f 60f
12:50am 9ft 10s 6s 22 27 mph 1010.7mb 62f 60f